createdAt,value
2023-03-29T00:00:49.862Z,0.40
2023-03-29T00:03:17.156Z,0.00
2023-03-29T00:05:44.869Z,0.10
2023-03-29T00:08:14.585Z,0.30
2023-03-29T00:10:43.867Z,0.40
2023-03-29T00:15:38.022Z,0.30
2023-03-29T00:18:04.825Z,0.40
2023-03-29T00:20:31.608Z,0.40
2023-03-29T00:22:58.375Z,0.60
2023-03-29T00:25:27.365Z,0.00
2023-03-29T00:30:26.021Z,0.50
2023-03-29T00:32:55.131Z,0.40
2023-03-29T00:35:24.169Z,0.40
2023-03-29T00:37:53.707Z,0.20
2023-03-29T00:40:22.686Z,0.20
2023-03-29T00:42:49.501Z,0.10
2023-03-29T00:45:20.429Z,0.00
2023-03-29T00:47:52.898Z,0.10
2023-03-29T00:50:29.758Z,0.30
2023-03-29T00:53:17.714Z,0.40
2023-03-29T00:56:05.305Z,0.10
2023-03-29T00:59:19.402Z,0.00
2023-03-29T01:02:02.320Z,-0.10
2023-03-29T01:04:42.693Z,0.10
2023-03-29T01:07:30.850Z,-0.30
2023-03-29T01:10:16.273Z,0.10
2023-03-29T01:12:51.455Z,0.30
2023-03-29T01:15:22.845Z,-0.10
2023-03-29T01:17:53.516Z,0.10
2023-03-29T01:20:27.605Z,0.00
2023-03-29T01:23:21.328Z,0.00
2023-03-29T01:26:16.036Z,0.10
2023-03-29T01:28:47.141Z,0.10
2023-03-29T01:31:22.049Z,-0.20
2023-03-29T01:33:51.014Z,-0.10
2023-03-29T01:36:21.445Z,1.10
2023-03-29T01:38:57.975Z,0.00
2023-03-29T01:41:52.713Z,0.10
2023-03-29T01:44:59.305Z,-0.10
2023-03-29T01:47:46.254Z,0.80
2023-03-29T01:50:41.015Z,0.10
2023-03-29T01:53:42.075Z,-0.10
2023-03-29T01:56:16.416Z,-0.20
2023-03-29T01:58:45.417Z,-0.20
2023-03-29T02:01:17.733Z,-0.30
2023-03-29T02:03:47.294Z,-0.30
2023-03-29T02:06:14.378Z,-0.30
2023-03-29T02:08:41.213Z,-0.30
2023-03-29T02:13:37.932Z,-0.20
2023-03-29T02:16:12.317Z,0.00
2023-03-29T02:18:40.420Z,-0.10
2023-03-29T02:21:07.634Z,-0.10
2023-03-29T02:23:41.043Z,0.50
2023-03-29T02:26:14.453Z,0.00
2023-03-29T02:28:43.816Z,-0.10
2023-03-29T02:31:22.629Z,-0.10
2023-03-29T02:34:05.322Z,0.00
2023-03-29T02:36:44.129Z,-0.20
2023-03-29T02:39:15.660Z,-0.30
2023-03-29T02:41:43.598Z,-0.30
2023-03-29T02:44:17.520Z,-0.30
2023-03-29T02:46:44.470Z,-0.10
2023-03-29T02:49:11.583Z,-0.20
2023-03-29T02:51:38.418Z,-0.30
2023-03-29T02:54:17.889Z,-0.80
2023-03-29T02:56:46.346Z,-0.10
2023-03-29T02:59:14.267Z,-0.70
2023-03-29T03:04:13.326Z,-0.20
2023-03-29T03:06:40.378Z,-0.10
2023-03-29T03:09:10.056Z,-0.20
2023-03-29T03:11:36.938Z,-0.50
2023-03-29T03:14:03.874Z,0.80
2023-03-29T03:19:01.012Z,-0.20
2023-03-29T03:21:30.956Z,-0.20
2023-03-29T03:23:57.719Z,0.10
2023-03-29T03:26:30.297Z,-0.30
2023-03-29T03:33:52.938Z,-0.50
2023-03-29T03:36:19.700Z,-0.40
2023-03-29T03:38:51.657Z,-0.20
2023-03-29T03:41:18.493Z,-0.30
2023-03-29T03:43:48.858Z,-0.50
2023-03-29T03:46:20.317Z,-0.30
2023-03-29T03:48:47.296Z,0.00
2023-03-29T03:51:14.194Z,-0.30
2023-03-29T03:53:42.414Z,-0.30
2023-03-29T03:56:09.409Z,-0.30
2023-03-29T03:58:39.113Z,-0.60
2023-03-29T04:01:08.387Z,-0.20
2023-03-29T04:03:35.275Z,-0.40
2023-03-29T04:06:04.573Z,-0.40
2023-03-29T04:08:32.096Z,-0.40
2023-03-29T04:11:01.790Z,-0.30
2023-03-29T04:15:58.778Z,-0.30
2023-03-29T04:20:56.365Z,-0.30
2023-03-29T04:23:23.123Z,-0.30
2023-03-29T04:25:50.178Z,-0.20
2023-03-29T04:28:19.523Z,-0.30
2023-03-29T04:30:47.359Z,-0.50
2023-03-29T04:33:14.304Z,-0.40
2023-03-29T04:35:41.090Z,-0.20
2023-03-29T04:38:10.215Z,-0.30
2023-03-29T04:40:42.168Z,-0.80
2023-03-29T04:43:11.175Z,-0.20
2023-03-29T04:45:40.404Z,-0.20
2023-03-29T05:00:29.358Z,-0.40
2023-03-29T05:02:57.891Z,-0.40
2023-03-29T05:05:24.863Z,-0.40
2023-03-29T05:07:51.656Z,-0.20
2023-03-29T05:12:47.070Z,-0.50
2023-03-29T05:15:14.888Z,0.50
2023-03-29T05:17:42.362Z,-0.50
2023-03-29T05:20:13.262Z,-0.50
2023-03-29T05:22:44.835Z,-0.70
2023-03-29T05:25:14.175Z,-0.60
2023-03-29T05:27:40.943Z,-0.70
2023-03-29T05:30:09.307Z,-0.60
2023-03-29T05:32:42.298Z,-0.50
2023-03-29T05:35:09.620Z,-0.20
2023-03-29T05:40:07.116Z,-0.20
2023-03-29T05:42:37.857Z,-0.10
2023-03-29T05:45:07.703Z,1.10
2023-03-29T05:59:55.332Z,1.40
2023-03-29T06:04:49.870Z,1.30
2023-03-29T06:09:45.713Z,1.30
2023-03-29T06:14:42.251Z,1.30
2023-03-29T06:22:04.143Z,1.50
2023-03-29T06:24:30.950Z,2.50
2023-03-29T06:26:59.940Z,1.30
2023-03-29T06:29:26.684Z,1.50
2023-03-29T06:31:54.492Z,1.40
2023-03-29T06:39:20.052Z,1.60
2023-03-29T06:41:49.162Z,1.60
2023-03-29T06:46:44.336Z,1.60
2023-03-29T06:49:13.752Z,2.00
2023-03-29T06:51:40.698Z,1.80
2023-03-29T07:01:31.772Z,1.70
2023-03-29T07:06:33.942Z,1.50
2023-03-29T07:09:06.625Z,1.70
2023-03-29T07:11:36.433Z,1.70
2023-03-29T07:14:03.428Z,1.60
2023-03-29T07:16:30.297Z,1.90
2023-03-29T07:18:57.510Z,2.00
2023-03-29T07:21:24.323Z,2.00
2023-03-29T07:26:29.014Z,2.40
2023-03-29T07:28:57.028Z,2.20
2023-03-29T07:31:23.860Z,2.20
2023-03-29T07:38:48.708Z,2.10
2023-03-29T07:41:15.484Z,2.10
2023-03-29T07:48:38.841Z,2.40
2023-03-29T07:51:06.351Z,2.30
2023-03-29T08:00:56.415Z,2.80
2023-03-29T08:08:21.029Z,2.60
2023-03-29T08:10:50.393Z,2.60
2023-03-29T08:13:17.670Z,2.50
2023-03-29T08:15:47.357Z,2.70
2023-03-29T08:18:16.419Z,2.70
2023-03-29T08:23:12.766Z,2.60
2023-03-29T08:28:06.827Z,2.80
2023-03-29T08:30:33.640Z,2.90
2023-03-29T08:33:00.568Z,2.80
2023-03-29T08:35:27.720Z,3.60
2023-03-29T08:40:24.501Z,3.10
2023-03-29T08:43:12.528Z,3.00
2023-03-29T08:45:49.732Z,3.20
2023-03-29T08:48:38.093Z,3.00
2023-03-29T08:51:28.024Z,3.30
2023-03-29T08:54:39.407Z,3.40
2023-03-29T08:57:27.208Z,3.00
2023-03-29T08:59:57.527Z,3.60
2023-03-29T09:02:34.196Z,3.60
2023-03-29T09:05:09.144Z,3.60
2023-03-29T09:10:03.672Z,3.60
2023-03-29T09:13:03.399Z,3.50
2023-03-29T09:15:52.533Z,3.70
2023-03-29T09:18:31.748Z,3.80
2023-03-29T09:21:22.719Z,3.80
2023-03-29T09:26:28.535Z,3.90
2023-03-29T09:29:16.648Z,3.60
2023-03-29T09:31:44.772Z,4.00
2023-03-29T09:34:17.971Z,4.10
2023-03-29T09:37:06.494Z,4.00
2023-03-29T09:39:33.305Z,4.00
2023-03-29T09:42:11.906Z,4.20
2023-03-29T09:44:52.932Z,4.20
2023-03-29T09:47:24.904Z,4.20
2023-03-29T09:49:55.451Z,4.30
2023-03-29T09:52:24.730Z,4.20
2023-03-29T09:59:49.314Z,4.50
2023-03-29T10:07:20.632Z,4.50
2023-03-29T10:09:50.689Z,4.50
2023-03-29T10:14:53.987Z,4.60
2023-03-29T10:17:25.511Z,4.70
2023-03-29T10:22:23.120Z,4.70
2023-03-29T10:24:53.108Z,4.90
2023-03-29T10:27:26.143Z,5.10
2023-03-29T10:32:23.387Z,5.20
2023-03-29T10:37:23.899Z,5.60
2023-03-29T10:39:50.699Z,5.90
2023-03-29T10:42:18.443Z,8.20
2023-03-29T10:44:56.870Z,6.10
2023-03-29T10:49:58.922Z,6.30
2023-03-29T10:54:54.709Z,6.70
2023-03-29T10:57:37.684Z,6.80
2023-03-29T11:00:13.395Z,7.10
2023-03-29T11:02:45.258Z,7.30
2023-03-29T11:05:17.314Z,7.40
2023-03-29T11:08:08.924Z,8.70
2023-03-29T11:10:41.483Z,8.20
2023-03-29T11:16:10.944Z,8.90
2023-03-29T11:21:27.347Z,10.90
2023-03-29T11:24:27.414Z,11.60
2023-03-29T11:27:07.991Z,13.00
2023-03-29T11:30:06.460Z,13.80
2023-03-29T11:32:33.472Z,15.60
2023-03-29T11:35:19.135Z,16.40
2023-03-29T11:37:57.833Z,17.20
2023-03-29T11:40:27.968Z,19.20
2023-03-29T11:42:56.048Z,19.50
2023-03-29T11:45:40.045Z,20.70
2023-03-29T11:50:48.592Z,22.60
2023-03-29T11:53:23.964Z,21.90
2023-03-29T11:55:53.262Z,21.80
2023-03-29T11:58:39.663Z,22.90
2023-03-29T12:01:20.650Z,23.60
2023-03-29T12:03:59.471Z,23.60
2023-03-29T12:06:44.102Z,23.90
2023-03-29T12:09:22.504Z,23.60
2023-03-29T12:11:53.124Z,22.20
2023-03-29T12:14:26.004Z,21.50
2023-03-29T12:17:04.521Z,20.80
2023-03-29T12:19:40.279Z,19.50
2023-03-29T12:22:09.319Z,18.40
2023-03-29T12:24:40.560Z,17.50
2023-03-29T12:32:41.460Z,14.10
2023-03-29T12:35:23.203Z,12.30
2023-03-29T12:37:58.946Z,12.60
2023-03-29T12:40:27.551Z,11.40
2023-03-29T12:43:05.658Z,11.00
2023-03-29T12:48:02.018Z,10.40
2023-03-29T12:50:36.709Z,10.30
2023-03-29T12:53:27.099Z,9.70
2023-03-29T12:55:55.948Z,9.70
2023-03-29T12:59:01.985Z,9.60
2023-03-29T13:01:36.981Z,9.20
2023-03-29T13:04:19.801Z,9.50
2023-03-29T13:06:51.042Z,9.60
2023-03-29T13:09:29.500Z,9.70
2023-03-29T13:12:16.550Z,9.60
2023-03-29T13:15:18.089Z,9.60
2023-03-29T13:18:17.454Z,9.70
2023-03-29T13:21:06.072Z,10.60
2023-03-29T13:26:43.500Z,9.70
2023-03-29T13:29:22.501Z,10.40
2023-03-29T13:34:49.720Z,9.80
2023-03-29T13:37:22.774Z,9.80
2023-03-29T13:39:53.934Z,9.50
2023-03-29T13:42:24.949Z,9.90
2023-03-29T13:44:54.273Z,9.80
2023-03-29T13:47:35.513Z,10.00
2023-03-29T13:50:17.863Z,10.00
2023-03-29T13:53:13.858Z,9.90
2023-03-29T13:55:48.933Z,9.90
2023-03-29T13:58:43.125Z,9.90
2023-03-29T14:01:32.004Z,9.90
2023-03-29T14:06:29.851Z,9.60
2023-03-29T14:11:28.200Z,9.50
2023-03-29T14:18:51.472Z,9.50
2023-03-29T14:21:18.531Z,10.10
2023-03-29T14:23:46.923Z,8.90
2023-03-29T14:29:03.280Z,8.70
2023-03-29T14:31:30.823Z,8.90
2023-03-29T14:33:59.237Z,9.10
2023-03-29T14:36:29.704Z,9.10
2023-03-29T14:39:27.458Z,9.20
2023-03-29T14:41:57.285Z,9.10
2023-03-29T14:44:34.606Z,9.30
2023-03-29T14:47:04.118Z,8.80
2023-03-29T14:51:58.338Z,9.10
2023-03-29T14:54:29.762Z,8.70
2023-03-29T14:56:59.422Z,8.70
2023-03-29T14:59:32.586Z,8.70
2023-03-29T15:01:59.413Z,8.60
2023-03-29T15:04:33.119Z,8.80
2023-03-29T15:09:33.261Z,8.90
2023-03-29T15:12:01.373Z,9.00
2023-03-29T15:14:33.839Z,9.00
2023-03-29T15:17:23.880Z,9.10
2023-03-29T15:19:57.582Z,8.80
2023-03-29T15:22:24.366Z,9.00
2023-03-29T15:29:47.368Z,9.00
2023-03-29T15:32:22.577Z,9.20
2023-03-29T15:34:59.650Z,9.70
2023-03-29T15:42:27.862Z,9.20
2023-03-29T15:54:49.139Z,9.30
2023-03-29T15:57:16.277Z,9.50
2023-03-29T16:02:21.810Z,9.30
2023-03-29T16:07:18.585Z,9.20
2023-03-29T16:09:47.884Z,8.90
2023-03-29T16:12:16.915Z,9.20
2023-03-29T16:22:10.578Z,8.90
2023-03-29T16:24:37.463Z,8.90
2023-03-29T16:27:09.268Z,8.60
2023-03-29T16:29:36.137Z,8.40
2023-03-29T16:39:34.606Z,8.80
2023-03-29T16:42:01.372Z,8.50
2023-03-29T16:44:28.151Z,8.20
2023-03-29T16:51:52.053Z,8.80
2023-03-29T17:01:43.487Z,8.40
2023-03-29T17:04:12.865Z,8.70
2023-03-29T17:06:39.713Z,8.30
2023-03-29T17:14:01.705Z,8.30
2023-03-29T17:19:00.235Z,8.30
2023-03-29T17:21:30.821Z,8.40
2023-03-29T17:31:20.113Z,8.10
2023-03-29T17:36:16.725Z,8.80
2023-03-29T17:41:11.159Z,8.10
2023-03-29T17:46:05.676Z,7.90
2023-03-29T17:53:27.427Z,8.30
2023-03-29T18:10:45.930Z,8.00
2023-03-29T18:20:38.416Z,8.00
2023-03-29T18:35:26.257Z,8.00
2023-03-29T18:37:55.295Z,8.00
2023-03-29T18:40:24.898Z,8.00
2023-03-29T18:45:19.304Z,7.70
2023-03-29T18:47:46.875Z,8.40
2023-03-29T18:52:40.899Z,8.00
2023-03-29T18:55:10.332Z,7.70
2023-03-29T18:57:37.255Z,7.70
2023-03-29T19:02:38.592Z,8.00
2023-03-29T19:12:27.231Z,8.00
2023-03-29T19:14:54.766Z,7.50
2023-03-29T19:34:34.162Z,7.20
2023-03-29T19:37:03.166Z,7.10
2023-03-29T19:54:17.385Z,7.30
2023-03-29T20:01:51.094Z,7.40
2023-03-29T20:04:20.989Z,7.30
2023-03-29T20:06:47.882Z,6.70
2023-03-29T20:09:16.926Z,7.30
2023-03-29T20:14:16.209Z,7.30
2023-03-29T20:19:17.904Z,7.10
2023-03-29T20:29:08.896Z,7.00
2023-03-29T20:31:40.834Z,6.90
2023-03-29T20:36:35.816Z,7.10
2023-03-29T20:46:33.353Z,7.20
2023-03-29T20:49:01.415Z,7.10
2023-03-29T20:51:31.972Z,7.20
2023-03-29T20:54:03.329Z,7.00
2023-03-29T20:56:40.102Z,7.10
2023-03-29T21:01:41.025Z,7.00
2023-03-29T21:06:36.120Z,7.00
2023-03-29T21:09:07.615Z,7.10
2023-03-29T21:11:36.777Z,6.80
2023-03-29T21:16:33.118Z,6.90
2023-03-29T21:26:26.134Z,6.70
2023-03-29T21:31:24.650Z,6.60
2023-03-29T21:38:50.224Z,6.40
2023-03-29T21:53:34.119Z,6.60
2023-03-29T21:58:28.307Z,7.30
2023-03-29T22:00:59.566Z,6.60
2023-03-29T22:03:29.298Z,6.50
2023-03-29T22:06:00.003Z,6.50
2023-03-29T22:08:29.712Z,6.40
2023-03-29T22:13:28.287Z,6.40
2023-03-29T22:16:01.520Z,6.40
2023-03-29T22:21:14.029Z,6.40
2023-03-29T22:23:43.477Z,6.40
2023-03-29T22:26:11.278Z,6.40
2023-03-29T22:31:07.258Z,6.30
2023-03-29T22:36:02.480Z,6.10
2023-03-29T22:48:21.066Z,6.20
2023-03-29T22:53:15.239Z,5.60
2023-03-29T23:03:06.644Z,5.90
2023-03-29T23:13:08.631Z,5.90
2023-03-29T23:15:43.515Z,5.80
2023-03-29T23:20:42.779Z,5.90
2023-03-29T23:23:11.768Z,5.70
2023-03-29T23:28:05.707Z,5.40
2023-03-29T23:30:35.860Z,5.60
2023-03-29T23:35:32.425Z,5.50
2023-03-29T23:37:59.808Z,6.50
2023-03-29T23:40:27.807Z,5.40
2023-03-29T23:42:59.602Z,5.30
2023-03-29T23:52:51.514Z,5.20
2023-03-29T23:55:18.589Z,5.50
